createdAt,value
2022-11-04T00:03:01.071Z,100083.50
2022-11-04T00:08:25.019Z,100083.66
2022-11-04T00:13:30.155Z,100103.47
2022-11-04T00:18:33.805Z,100114.81
2022-11-04T00:23:56.530Z,100121.00
2022-11-04T00:29:00.320Z,100115.84
2022-11-04T00:34:03.983Z,100128.47
2022-11-04T00:39:08.979Z,100129.69
2022-11-04T00:44:12.736Z,100127.09
2022-11-04T00:49:16.418Z,100140.53
2022-11-04T00:54:21.458Z,100138.91
2022-11-04T00:59:25.088Z,100147.19
2022-11-04T01:04:28.811Z,100160.88
2022-11-04T01:09:34.118Z,100153.28
2022-11-04T01:14:38.043Z,100170.50
2022-11-04T01:19:41.696Z,100186.16
2022-11-04T01:24:46.714Z,100179.78
2022-11-04T01:29:50.406Z,100173.94
2022-11-04T01:34:54.075Z,100182.28
2022-11-04T01:39:59.082Z,100179.28
2022-11-04T01:45:02.811Z,100176.50
2022-11-04T01:50:12.227Z,100176.44
2022-11-04T01:55:21.369Z,100170.66
2022-11-04T02:00:25.106Z,100166.66
2022-11-04T02:05:30.526Z,100163.78
2022-11-04T02:10:35.805Z,100171.06
2022-11-04T02:15:47.158Z,100165.63
2022-11-04T02:21:21.189Z,100176.81
2022-11-04T02:27:10.072Z,100179.59
2022-11-04T02:32:25.049Z,100183.75
2022-11-04T02:37:36.179Z,100182.50
2022-11-04T02:42:46.578Z,100191.94
2022-11-04T02:47:56.609Z,100185.84
2022-11-04T02:53:06.457Z,100180.31
2022-11-04T02:58:14.896Z,100183.94
2022-11-04T03:03:24.038Z,100183.75
2022-11-04T03:08:32.034Z,100188.78
2022-11-04T03:13:42.274Z,100194.72
2022-11-04T03:18:56.301Z,100199.78
2022-11-04T03:24:01.094Z,100204.69
2022-11-04T03:29:17.642Z,100209.91
2022-11-04T03:34:22.866Z,100220.16
2022-11-04T03:39:26.731Z,100211.59
2022-11-04T03:44:30.960Z,100207.81
2022-11-04T03:49:36.094Z,100215.44
2022-11-04T03:54:40.358Z,100209.50
2022-11-04T04:00:06.924Z,100204.06
2022-11-04T04:05:18.993Z,100216.97
2022-11-04T04:10:41.976Z,100215.22
2022-11-04T04:15:53.726Z,100216.84
2022-11-04T04:21:02.963Z,100221.91
2022-11-04T04:26:26.790Z,100230.28
2022-11-04T04:31:50.278Z,100235.88
2022-11-04T04:37:02.307Z,100239.53
2022-11-04T04:42:24.869Z,100239.53
2022-11-04T04:47:33.367Z,100243.69
2022-11-04T04:52:42.279Z,100247.06
2022-11-04T04:57:46.053Z,100246.94
2022-11-04T05:02:50.117Z,100251.09
2022-11-04T05:07:55.168Z,100248.44
2022-11-04T05:13:18.077Z,100243.94
2022-11-04T05:18:21.784Z,100262.94
2022-11-04T05:23:26.834Z,100275.94
2022-11-04T05:28:30.814Z,100283.06
2022-11-04T05:33:34.502Z,100293.63
2022-11-04T05:38:39.985Z,100295.63
2022-11-04T05:43:43.662Z,100298.44
2022-11-04T05:48:47.362Z,100301.16
2022-11-04T05:53:52.447Z,100303.94
2022-11-04T05:58:56.285Z,100298.94
2022-11-04T06:04:01.001Z,100310.28
2022-11-04T06:09:06.289Z,100313.06
2022-11-04T06:14:13.563Z,100308.78
2022-11-04T06:19:19.847Z,100311.34
2022-11-04T06:24:24.967Z,100317.25
2022-11-04T06:29:28.662Z,100321.53
2022-11-04T06:34:32.363Z,100325.75
2022-11-04T06:39:37.442Z,100343.53
2022-11-04T06:44:41.109Z,100344.59
2022-11-04T06:49:44.785Z,100348.19
2022-11-04T06:54:49.821Z,100362.97
2022-11-04T06:59:53.690Z,100365.81
2022-11-04T07:10:03.301Z,100380.06
2022-11-04T07:15:07.999Z,100374.34
2022-11-04T07:20:13.559Z,100377.94
2022-11-04T07:25:18.614Z,100384.00
2022-11-04T07:30:22.320Z,100386.37
2022-11-04T07:35:26.116Z,100379.31
2022-11-04T07:40:31.300Z,100389.50
2022-11-04T07:45:35.590Z,100404.09
2022-11-04T07:50:40.863Z,100411.66
2022-11-04T07:55:49.413Z,100424.88
2022-11-04T08:00:59.534Z,100432.44
2022-11-04T08:06:05.724Z,100443.00
2022-11-04T08:11:17.309Z,100439.69
2022-11-04T08:16:22.923Z,100447.16
2022-11-04T08:21:26.807Z,100433.34
2022-11-04T08:26:31.916Z,100438.75
2022-11-04T08:31:36.217Z,100439.12
2022-11-04T08:36:42.680Z,100438.25
2022-11-04T08:41:48.152Z,100448.38
2022-11-04T08:46:52.163Z,100440.84
2022-11-04T08:51:57.201Z,100454.13
2022-11-04T08:57:02.650Z,100450.44
2022-11-04T09:02:06.420Z,100459.56
2022-11-04T09:07:10.155Z,100465.19
2022-11-04T09:12:15.127Z,100462.03
2022-11-04T09:17:18.794Z,100476.94
2022-11-04T09:22:22.537Z,100486.62
2022-11-04T09:27:27.739Z,100483.66
2022-11-04T09:32:31.421Z,100486.16
2022-11-04T09:37:35.111Z,100501.69
2022-11-04T09:42:53.685Z,100515.69
2022-11-04T09:48:01.521Z,100520.56
2022-11-04T09:53:13.985Z,100522.00
2022-11-04T09:58:19.221Z,100533.22
2022-11-04T10:03:38.574Z,100544.03
2022-11-04T10:08:54.953Z,100554.75
2022-11-04T10:14:16.059Z,100545.03
2022-11-04T10:19:35.890Z,100551.41
2022-11-04T10:24:43.911Z,100553.66
2022-11-04T10:29:54.010Z,100558.34
2022-11-04T10:35:01.893Z,100556.53
2022-11-04T10:40:21.224Z,100567.25
2022-11-04T10:45:35.305Z,100575.59
2022-11-04T10:50:42.418Z,100571.09
2022-11-04T10:55:55.957Z,100580.88
2022-11-04T11:01:01.388Z,100575.94
2022-11-04T11:06:16.968Z,100584.47
2022-11-04T11:11:37.728Z,100592.72
2022-11-04T11:16:42.818Z,100605.59
2022-11-04T11:21:49.171Z,100609.47
2022-11-04T11:26:55.793Z,100609.72
2022-11-04T11:32:01.770Z,100609.03
2022-11-04T11:37:07.607Z,100598.53
2022-11-04T11:42:16.082Z,100600.31
2022-11-04T11:47:23.852Z,100604.13
2022-11-04T11:52:34.661Z,100587.44
2022-11-04T12:03:21.533Z,100608.28
2022-11-04T12:14:08.857Z,100615.12
2022-11-04T12:19:31.136Z,100617.50
2022-11-04T12:24:45.648Z,100619.31
2022-11-04T12:30:03.248Z,100628.06
2022-11-04T12:35:24.984Z,100637.00
2022-11-04T12:40:30.201Z,100650.28
2022-11-04T12:45:46.701Z,100646.97
2022-11-04T12:51:04.808Z,100650.19
2022-11-04T12:56:10.271Z,100660.37
2022-11-04T13:01:19.526Z,100660.16
2022-11-04T13:06:28.236Z,100658.28
2022-11-04T13:11:37.138Z,100670.03
2022-11-04T13:16:42.661Z,100694.53
2022-11-04T13:21:48.457Z,100693.06
2022-11-04T13:26:53.164Z,100695.47
2022-11-04T13:32:03.858Z,100696.09
2022-11-04T13:37:21.798Z,100708.47
2022-11-04T13:43:41.947Z,100721.59
2022-11-04T13:48:55.618Z,100725.31
2022-11-04T13:54:00.672Z,100728.34
2022-11-04T13:59:08.800Z,100738.94
2022-11-04T14:04:30.401Z,100749.34
2022-11-04T14:09:53.525Z,100762.66
2022-11-04T14:15:06.087Z,100780.50
2022-11-04T14:20:12.582Z,100808.06
2022-11-04T14:25:25.783Z,100812.47
2022-11-04T14:30:36.916Z,100817.78
2022-11-04T14:35:40.678Z,100838.09
2022-11-04T14:40:52.256Z,100832.38
2022-11-04T14:45:57.100Z,100842.28
2022-11-04T14:51:00.871Z,100849.44
2022-11-04T14:56:13.329Z,100850.72
2022-11-04T15:01:17.828Z,100856.56
2022-11-04T15:06:35.208Z,100858.78
2022-11-04T15:12:03.509Z,100866.12
2022-11-04T15:17:07.282Z,100881.28
2022-11-04T15:22:15.049Z,100876.88
2022-11-04T15:27:25.467Z,100877.72
2022-11-04T15:32:30.122Z,100891.56
2022-11-04T15:37:43.653Z,100888.00
2022-11-04T15:42:49.858Z,100905.31
2022-11-04T15:48:25.755Z,100908.25
2022-11-04T15:53:29.683Z,100914.63
2022-11-04T15:58:35.501Z,100916.25
2022-11-04T16:03:39.215Z,100938.72
2022-11-04T16:08:43.060Z,100940.00
2022-11-04T16:13:48.320Z,100948.53
2022-11-04T16:18:54.698Z,100945.94
2022-11-04T16:24:02.346Z,100957.69
2022-11-04T16:29:10.704Z,100953.16
2022-11-04T16:34:14.286Z,100963.97
2022-11-04T16:39:17.886Z,100966.16
2022-11-04T16:44:24.399Z,100968.31
2022-11-04T16:49:28.209Z,100988.88
2022-11-04T16:54:31.962Z,100991.31
2022-11-04T16:59:37.031Z,100988.97
2022-11-04T17:04:40.726Z,100999.13
2022-11-04T17:09:44.476Z,101010.03
2022-11-04T17:14:49.552Z,101012.16
2022-11-04T17:19:53.258Z,101020.63
2022-11-04T17:24:57.027Z,101017.63
2022-11-04T17:30:02.307Z,101032.06
2022-11-04T17:35:06.797Z,101042.91
2022-11-04T17:40:14.721Z,101047.00
2022-11-04T17:45:19.857Z,101054.47
2022-11-04T17:50:23.917Z,101057.72
2022-11-04T17:55:28.003Z,101061.75
2022-11-04T18:00:33.133Z,101069.19
2022-11-04T18:05:36.884Z,101080.28
2022-11-04T18:10:40.550Z,101094.09
2022-11-04T18:15:45.711Z,101094.72
2022-11-04T18:20:49.738Z,101106.69
2022-11-04T18:25:53.407Z,101107.19
2022-11-04T18:30:58.469Z,101107.06
2022-11-04T18:36:04.810Z,101124.06
2022-11-04T18:41:08.497Z,101123.56
2022-11-04T18:46:16.016Z,101125.97
2022-11-04T18:51:22.594Z,101126.41
2022-11-04T18:56:26.263Z,101131.09
2022-11-04T19:01:33.839Z,101141.69
2022-11-04T19:06:41.799Z,101156.72
2022-11-04T19:11:45.771Z,101164.47
2022-11-04T19:16:50.808Z,101163.09
2022-11-04T19:21:54.489Z,101157.75
2022-11-04T19:26:58.215Z,101172.47
2022-11-04T19:32:03.336Z,101179.87
2022-11-04T19:37:07.050Z,101181.69
2022-11-04T19:42:31.601Z,101189.63
2022-11-04T19:47:36.617Z,101199.06
2022-11-04T19:52:40.428Z,101197.69
2022-11-04T19:57:44.140Z,101202.13
2022-11-04T20:02:49.317Z,101210.59
2022-11-04T20:07:54.919Z,101226.72
2022-11-04T20:13:16.321Z,101227.53
2022-11-04T20:18:21.435Z,101228.19
2022-11-04T20:23:25.154Z,101236.53
2022-11-04T20:28:28.856Z,101237.25
2022-11-04T20:33:33.850Z,101250.94
2022-11-04T20:38:37.929Z,101257.16
2022-11-04T20:43:41.985Z,101262.31
2022-11-04T20:48:47.661Z,101268.25
2022-11-04T20:53:55.866Z,101279.84
2022-11-04T20:59:00.727Z,101284.22
2022-11-04T21:04:07.719Z,101300.75
2022-11-04T21:09:15.672Z,101309.72
2022-11-04T21:14:20.238Z,101321.34
2022-11-04T21:19:25.337Z,101329.97
2022-11-04T21:24:29.064Z,101337.38
2022-11-04T21:29:32.831Z,101344.50
2022-11-04T21:34:38.177Z,101344.50
2022-11-04T21:39:42.626Z,101350.81
2022-11-04T21:44:46.370Z,101358.81
2022-11-04T21:49:51.462Z,101351.59
2022-11-04T21:54:55.180Z,101353.28
2022-11-04T21:59:58.893Z,101357.31
2022-11-04T22:05:03.981Z,101367.19
2022-11-04T22:10:08.684Z,101367.19
2022-11-04T22:15:12.374Z,101367.91
2022-11-04T22:20:17.684Z,101365.22
2022-11-04T22:25:21.405Z,101379.56
2022-11-04T22:30:25.184Z,101386.84
2022-11-04T22:35:30.434Z,101384.09
2022-11-04T22:40:34.167Z,101383.13
2022-11-04T22:45:39.636Z,101383.47
2022-11-04T22:50:44.918Z,101393.59
2022-11-04T22:55:48.626Z,101392.31
2022-11-04T23:00:56.138Z,101395.97
2022-11-04T23:06:02.608Z,101403.47
2022-11-04T23:11:27.056Z,101398.53
2022-11-04T23:16:48.506Z,101405.88
2022-11-04T23:22:11.553Z,101399.37
2022-11-04T23:27:35.492Z,101390.19
2022-11-04T23:32:39.179Z,101401.00
2022-11-04T23:37:44.245Z,101392.69
2022-11-04T23:42:47.940Z,101394.00
2022-11-04T23:48:14.346Z,101391.81
2022-11-04T23:53:38.954Z,101391.34
2022-11-04T23:59:00.291Z,101404.62
